Time;durP1;ratioP1;P1;durP2;ratioP2;P2;SDS_P1;SDS_P2;PMS_P1;PMS_P2;Temp;Humidity;BMP_temperature;BMP_pressure;BME280_temperature;BME280_humidity;BME280_pressure;Samples;Min_cycle;Max_cycle;Signal;HPM_P1;HPM_P2
2023/05/13 00:01:17;;;;;;;8.40;4.07;;;15.50;86.60;;;;;;5051545;28;20641;-71
2023/05/13 00:03:44;;;;;;;8.05;3.88;;;15.50;86.50;;;;;;5062778;28;20094;-71
2023/05/13 00:06:12;;;;;;;12.02;4.20;;;15.50;86.50;;;;;;5049763;28;20513;-71
2023/05/13 00:08:39;;;;;;;8.05;3.67;;;15.60;86.50;;;;;;5049978;28;20037;-71
2023/05/13 00:11:07;;;;;;;10.00;4.03;;;15.60;86.50;;;;;;5032031;28;20047;-71
2023/05/13 00:13:34;;;;;;;12.13;4.28;;;15.60;86.40;;;;;;5045757;28;20488;-72
2023/05/13 00:16:02;;;;;;;12.85;4.15;;;15.70;86.20;;;;;;5057470;28;20036;-72
2023/05/13 00:18:29;;;;;;;10.45;4.20;;;15.70;86.20;;;;;;5051444;28;20044;-72
2023/05/13 00:20:57;;;;;;;8.85;4.35;;;15.70;86.40;;;;;;5069285;28;20040;-71
2023/05/13 04:02:23;;;;;;;3.53;1.58;;;18.30;70.60;;;;;;5050017;28;20110;-69
2023/05/13 04:04:50;;;;;;;3.95;1.50;;;18.30;70.40;;;;;;5053357;28;20049;-69
2023/05/13 04:07:18;;;;;;;6.72;2.28;;;18.40;72.00;;;;;;5048945;28;20036;-70
2023/05/13 04:09:45;;;;;;;8.52;1.75;;;18.40;70.50;;;;;;5044739;28;20059;-71
2023/05/13 04:12:14;;;;;;;3.10;1.45;;;18.40;71.00;;;;;;5028224;28;20403;-69
2023/05/13 04:14:42;;;;;;;4.00;1.58;;;18.40;67.20;;;;;;5031985;28;20033;-70
2023/05/13 04:17:09;;;;;;;4.22;1.80;;;18.40;69.30;;;;;;5060276;28;20402;-69
2023/05/13 04:19:36;;;;;;;6.18;1.88;;;18.30;70.30;;;;;;5033471;28;20489;-71
2023/05/13 04:22:04;;;;;;;3.83;1.85;;;18.30;71.70;;;;;;5067238;28;20056;-70
2023/05/13 04:24:32;;;;;;;6.82;1.80;;;18.40;72.60;;;;;;5033156;28;20115;-70
2023/05/13 04:26:59;;;;;;;7.15;1.92;;;18.40;73.90;;;;;;5048709;28;20029;-71
2023/05/13 04:29:26;;;;;;;6.63;2.20;;;18.30;75.10;;;;;;5030640;28;20032;-71
2023/05/13 04:31:54;;;;;;;5.13;2.10;;;18.30;76.80;;;;;;5048316;28;20394;-71
2023/05/13 04:34:21;;;;;;;8.02;2.35;;;18.30;77.90;;;;;;5069020;28;20032;-71
2023/05/13 04:36:49;;;;;;;6.20;2.20;;;18.30;78.60;;;;;;5066196;28;20048;-72
2023/05/13 04:39:16;;;;;;;5.10;2.35;;;18.20;78.50;;;;;;5034697;28;20124;-72
2023/05/13 04:41:44;;;;;;;5.03;2.08;;;18.20;78.20;;;;;;5069777;28;20066;-72
2023/05/13 04:44:11;;;;;;;8.00;2.20;;;18.10;78.10;;;;;;5048716;28;20032;-73
2023/05/13 04:46:39;;;;;;;7.32;2.17;;;18.20;78.20;;;;;;5066886;28;20489;-72
2023/05/13 04:49:06;;;;;;;7.78;2.33;;;18.20;76.10;;;;;;5051201;28;20387;-70
2023/05/13 04:51:34;;;;;;;6.32;1.90;;;18.10;75.50;;;;;;5029052;28;20102;-71
2023/05/13 04:54:01;;;;;;;7.50;2.05;;;18.20;74.40;;;;;;5068077;28;20047;-72
2023/05/13 04:56:29;;;;;;;5.38;2.10;;;18.10;74.60;;;;;;5050639;28;20020;-71
2023/05/13 04:58:56;;;;;;;6.57;2.08;;;18.10;74.60;;;;;;5049372;28;20086;-72
2023/05/13 05:01:23;;;;;;;4.60;1.85;;;18.10;74.40;;;;;;5078122;28;20041;-71
2023/05/13 16:12:36;;;;;;;8.73;3.80;;;15.20;88.80;;;;;;5051039;28;20049;-67
2023/05/13 16:15:05;;;;;;;5.82;3.55;;;15.20;88.80;;;;;;5052720;28;20412;-66
2023/05/13 16:17:34;;;;;;;7.47;3.45;;;15.30;88.80;;;;;;5052438;28;20387;-66
2023/05/13 16:20:02;;;;;;;7.35;3.40;;;15.20;88.80;;;;;;5051458;28;20045;-66
2023/05/13 16:22:32;;;;;;;6.57;4.03;;;15.20;88.70;;;;;;5051945;28;20037;-66
2023/05/13 16:25:07;;;;;;;7.03;3.13;;;15.20;88.80;;;;;;5024002;28;20091;-66
2023/05/13 16:27:35;;;;;;;6.00;3.10;;;15.20;88.60;;;;;;5031816;28;20040;-67
2023/05/13 16:30:03;;;;;;;6.72;3.30;;;15.20;88.70;;;;;;5018311;28;20064;-67
2023/05/13 16:32:30;;;;;;;8.45;3.08;;;15.20;88.40;;;;;;5051850;28;20384;-66
2023/05/13 16:35:00;;;;;;;9.48;4.40;;;15.20;88.60;;;;;;5042404;28;20515;-67
2023/05/13 16:37:27;;;;;;;7.72;4.22;;;15.10;88.50;;;;;;5032095;28;20052;-67
2023/05/13 16:39:55;;;;;;;7.10;4.40;;;15.10;88.80;;;;;;5032018;28;20037;-67
2023/05/13 16:42:22;;;;;;;6.45;3.97;;;15.20;88.90;;;;;;5035821;28;20123;-66
2023/05/13 16:44:50;;;;;;;10.52;4.82;;;15.10;89.00;;;;;;5051598;28;20498;-67
2023/05/13 16:47:17;;;;;;;8.15;4.85;;;15.10;89.20;;;;;;5051229;28;20398;-66
2023/05/13 16:49:47;;;;;;;8.90;4.63;;;15.10;89.20;;;;;;5051305;28;20052;-66
2023/05/13 16:52:14;;;;;;;7.67;4.57;;;15.10;89.40;;;;;;5034115;28;20450;-67
2023/05/13 16:54:42;;;;;;;10.70;4.10;;;15.00;89.40;;;;;;5046193;28;20029;-66
2023/05/13 16:57:09;;;;;;;11.35;5.00;;;15.00;89.40;;;;;;5013844;28;20032;-67
2023/05/13 16:59:37;;;;;;;8.48;4.05;;;15.00;89.40;;;;;;5031944;28;20377;-67
2023/05/13 17:02:04;;;;;;;10.00;4.60;;;15.00;89.50;;;;;;5031847;28;20033;-66
2023/05/13 17:04:32;;;;;;;7.93;4.60;;;15.10;89.50;;;;;;5038404;28;20032;-67
2023/05/13 17:06:59;;;;;;;8.45;4.35;;;15.10;89.50;;;;;;5050912;28;20056;-67
2023/05/13 17:09:28;;;;;;;10.48;4.38;;;15.10;89.40;;;;;;5033912;28;20505;-66
2023/05/13 17:11:55;;;;;;;9.60;3.88;;;15.00;89.40;;;;;;5017157;28;20091;-66
2023/05/13 17:14:23;;;;;;;9.35;3.85;;;15.00;89.30;;;;;;5051556;28;20036;-66
2023/05/13 17:16:50;;;;;;;8.32;4.80;;;14.90;89.30;;;;;;5051582;28;20025;-67
2023/05/13 17:19:17;;;;;;;5.82;3.58;;;15.00;89.20;;;;;;5038357;28;20065;-65
2023/05/13 17:21:45;;;;;;;5.82;3.53;;;14.90;89.30;;;;;;5030501;28;20025;-66
2023/05/13 17:24:13;;;;;;;6.30;3.75;;;14.90;89.10;;;;;;5031707;28;20504;-66
2023/05/13 17:26:40;;;;;;;7.47;4.18;;;14.80;89.10;;;;;;5019906;28;20036;-66
2023/05/13 17:29:08;;;;;;;5.07;3.67;;;14.80;89.10;;;;;;5033287;28;20041;-67
2023/05/13 17:31:35;;;;;;;5.90;3.50;;;14.80;89.10;;;;;;5051633;28;20101;-67
2023/05/13 17:34:03;;;;;;;5.85;3.53;;;14.80;89.10;;;;;;5051567;28;20033;-66
2023/05/13 17:36:31;;;;;;;11.07;4.00;;;14.80;89.00;;;;;;5016715;28;20037;-67
2023/05/13 17:38:59;;;;;;;7.60;4.05;;;14.70;89.10;;;;;;5050871;28;20033;-66
2023/05/13 17:41:26;;;;;;;5.22;3.38;;;14.70;89.10;;;;;;5051463;28;20037;-66
2023/05/13 17:43:53;;;;;;;5.95;3.45;;;14.70;89.10;;;;;;5051308;28;20045;-66
2023/05/13 17:46:21;;;;;;;7.68;3.63;;;14.70;89.00;;;;;;5051348;28;20045;-67
2023/05/13 17:48:48;;;;;;;5.90;3.63;;;14.70;88.70;;;;;;5047948;28;20518;-67
2023/05/13 17:51:16;;;;;;;7.90;3.60;;;14.70;88.90;;;;;;5031466;28;20030;-66
2023/05/13 17:53:43;;;;;;;6.43;3.38;;;14.80;88.80;;;;;;4997634;28;20057;-67
2023/05/13 17:56:10;;;;;;;6.22;3.40;;;14.70;88.70;;;;;;5033380;28;20073;-67
2023/05/13 17:58:38;;;;;;;7.40;3.38;;;14.70;89.00;;;;;;5049467;28;20064;-66
2023/05/13 18:01:05;;;;;;;11.38;4.53;;;14.80;89.10;;;;;;5044905;28;20635;-67
2023/05/13 18:03:34;;;;;;;11.80;4.88;;;14.70;89.70;;;;;;5048336;28;20037;-66
2023/05/13 18:06:01;;;;;;;14.98;4.85;;;14.60;92.20;;;;;;5048562;28;20056;-66
2023/05/13 22:23:44;;;;;;;9.85;5.07;;;14.10;94.90;;;;;;5019221;28;20115;-65
2023/05/13 22:26:11;;;;;;;7.07;4.40;;;14.20;94.70;;;;;;5033083;28;20059;-66
2023/05/13 22:28:39;;;;;;;7.78;4.75;;;14.20;94.70;;;;;;5049229;28;20051;-65
2023/05/13 22:31:07;;;;;;;5.13;4.40;;;14.20;94.80;;;;;;5053721;28;20041;-65
2023/05/13 22:33:34;;;;;;;8.32;4.47;;;14.20;94.80;;;;;;5049571;28;20033;-65
2023/05/13 22:36:02;;;;;;;5.75;4.30;;;14.30;94.90;;;;;;5047844;28;20036;-65
2023/05/13 22:38:29;;;;;;;8.13;4.10;;;14.40;95.00;;;;;;5049383;28;20584;-65
2023/05/13 22:40:57;;;;;;;12.30;4.28;;;14.40;94.90;;;;;;5053435;28;20037;-65
2023/05/13 22:43:24;;;;;;;6.13;4.13;;;14.50;94.90;;;;;;5054238;28;20047;-65
2023/05/13 22:45:52;;;;;;;7.25;4.10;;;14.50;95.00;;;;;;5054163;28;20037;-65
2023/05/13 22:48:19;;;;;;;7.63;3.90;;;14.60;95.10;;;;;;5052545;28;20489;-65
2023/05/13 22:50:47;;;;;;;7.15;4.00;;;14.50;95.10;;;;;;5054220;28;20032;-65
2023/05/13 22:53:15;;;;;;;5.22;3.63;;;14.60;95.00;;;;;;5036467;28;20396;-65
2023/05/13 22:55:42;;;;;;;6.75;3.80;;;14.70;95.00;;;;;;5036714;28;20025;-65
2023/05/13 22:58:10;;;;;;;4.90;3.53;;;14.70;95.10;;;;;;5054179;28;20041;-65
2023/05/13 23:00:37;;;;;;;4.38;3.30;;;14.70;95.20;;;;;;5053966;28;20029;-65
2023/05/13 23:03:05;;;;;;;5.70;3.20;;;14.70;95.20;;;;;;5053714;28;20340;-65
2023/05/13 23:05:32;;;;;;;6.85;3.28;;;14.70;95.20;;;;;;5054234;28;20033;-65
2023/05/13 23:08:00;;;;;;;6.20;3.90;;;14.80;95.30;;;;;;5052055;28;20036;-64
2023/05/13 23:10:28;;;;;;;6.22;3.45;;;14.80;95.30;;;;;;5033358;28;20037;-65
2023/05/13 23:12:56;;;;;;;5.15;3.30;;;14.80;95.20;;;;;;5033608;28;20030;-65
2023/05/13 23:15:23;;;;;;;5.63;2.97;;;14.90;95.30;;;;;;5034326;28;20029;-66
2023/05/13 23:17:51;;;;;;;5.03;3.30;;;15.00;95.30;;;;;;5034330;28;20104;-65
2023/05/13 23:20:18;;;;;;;5.72;3.03;;;15.00;95.30;;;;;;5034164;28;20124;-65
2023/05/13 23:22:46;;;;;;;4.18;3.00;;;15.00;95.40;;;;;;5033630;28;20427;-67
